sensor_id;sensor_type;location;lat;lon;timestamp;P1;durP1;ratioP1;P2;durP2;ratioP2
48526;SDS011;34317;51.660;5.824;2022-09-09T00:00:24;4.88;;;1.42;;
48526;SDS011;34317;51.660;5.824;2022-09-09T00:05:42;2.45;;;1.60;;
48526;SDS011;34317;51.660;5.824;2022-09-09T00:08:13;3.38;;;1.77;;
48526;SDS011;34317;51.660;5.824;2022-09-09T00:10:47;3.83;;;1.90;;
48526;SDS011;34317;51.660;5.824;2022-09-09T00:13:31;3.70;;;1.95;;
48526;SDS011;34317;51.660;5.824;2022-09-09T00:16:19;2.75;;;1.92;;
48526;SDS011;34317;51.660;5.824;2022-09-09T00:24:26;2.37;;;1.93;;
48526;SDS011;34317;51.660;5.824;2022-09-09T00:27:01;2.55;;;1.85;;
48526;SDS011;34317;51.660;5.824;2022-09-09T00:32:40;3.33;;;2.10;;
48526;SDS011;34317;51.660;5.824;2022-09-09T00:35:16;2.55;;;1.80;;
48526;SDS011;34317;51.660;5.824;2022-09-09T00:37:46;2.40;;;1.92;;
48526;SDS011;34317;51.660;5.824;2022-09-09T00:40:23;2.53;;;1.77;;
48526;SDS011;34317;51.660;5.824;2022-09-09T00:43:44;3.83;;;2.00;;
48526;SDS011;34317;51.660;5.824;2022-09-09T00:48:45;2.50;;;1.88;;
48526;SDS011;34317;51.660;5.824;2022-09-09T00:51:24;3.30;;;2.00;;
48526;SDS011;34317;51.660;5.824;2022-09-09T00:57:29;2.65;;;2.20;;
48526;SDS011;34317;51.660;5.824;2022-09-09T01:00:16;2.90;;;1.85;;
48526;SDS011;34317;51.660;5.824;2022-09-09T01:19:08;4.10;;;2.33;;
48526;SDS011;34317;51.660;5.824;2022-09-09T01:21:50;3.20;;;2.10;;
48526;SDS011;34317;51.660;5.824;2022-09-09T01:24:35;4.93;;;2.20;;
48526;SDS011;34317;51.660;5.824;2022-09-09T01:27:15;6.75;;;2.20;;
48526;SDS011;34317;51.660;5.824;2022-09-09T01:29:45;4.57;;;2.10;;
48526;SDS011;34317;51.660;5.824;2022-09-09T01:35:08;4.15;;;2.05;;
48526;SDS011;34317;51.660;5.824;2022-09-09T01:37:41;5.00;;;2.40;;
48526;SDS011;34317;51.660;5.824;2022-09-09T01:40:09;3.38;;;2.00;;
48526;SDS011;34317;51.660;5.824;2022-09-09T01:42:36;4.40;;;2.08;;
48526;SDS011;34317;51.660;5.824;2022-09-09T01:45:04;3.88;;;2.17;;
48526;SDS011;34317;51.660;5.824;2022-09-09T01:47:32;3.33;;;2.30;;
48526;SDS011;34317;51.660;5.824;2022-09-09T01:50:31;5.45;;;2.17;;
48526;SDS011;34317;51.660;5.824;2022-09-09T01:52:59;4.32;;;2.13;;
48526;SDS011;34317;51.660;5.824;2022-09-09T01:55:38;6.50;;;2.25;;
48526;SDS011;34317;51.660;5.824;2022-09-09T02:01:14;6.32;;;2.17;;
48526;SDS011;34317;51.660;5.824;2022-09-09T02:03:54;3.10;;;2.17;;
48526;SDS011;34317;51.660;5.824;2022-09-09T02:06:32;2.90;;;2.08;;
48526;SDS011;34317;51.660;5.824;2022-09-09T02:09:13;2.63;;;2.10;;
48526;SDS011;34317;51.660;5.824;2022-09-09T02:11:49;5.43;;;2.40;;
48526;SDS011;34317;51.660;5.824;2022-09-09T02:14:36;4.40;;;2.33;;
48526;SDS011;34317;51.660;5.824;2022-09-09T02:17:10;3.72;;;2.40;;
48526;SDS011;34317;51.660;5.824;2022-09-09T02:19:56;5.53;;;2.38;;
48526;SDS011;34317;51.660;5.824;2022-09-09T02:22:41;4.93;;;2.30;;
48526;SDS011;34317;51.660;5.824;2022-09-09T02:25:13;6.40;;;2.30;;
48526;SDS011;34317;51.660;5.824;2022-09-09T02:27:44;4.15;;;2.35;;
48526;SDS011;34317;51.660;5.824;2022-09-09T02:30:14;3.25;;;2.33;;
48526;SDS011;34317;51.660;5.824;2022-09-09T02:32:48;3.72;;;2.38;;
48526;SDS011;34317;51.660;5.824;2022-09-09T02:35:21;7.63;;;2.53;;
48526;SDS011;34317;51.660;5.824;2022-09-09T02:37:51;4.93;;;2.20;;
48526;SDS011;34317;51.660;5.824;2022-09-09T02:40:22;5.07;;;2.40;;
48526;SDS011;34317;51.660;5.824;2022-09-09T02:42:57;4.68;;;2.30;;
48526;SDS011;34317;51.660;5.824;2022-09-09T02:45:27;4.32;;;2.55;;
48526;SDS011;34317;51.660;5.824;2022-09-09T02:51:02;4.82;;;2.63;;
48526;SDS011;34317;51.660;5.824;2022-09-09T02:53:53;7.07;;;2.65;;
48526;SDS011;34317;51.660;5.824;2022-09-09T02:56:23;4.57;;;2.88;;
48526;SDS011;34317;51.660;5.824;2022-09-09T02:58:55;6.68;;;2.58;;
48526;SDS011;34317;51.660;5.824;2022-09-09T03:01:22;6.90;;;2.40;;
48526;SDS011;34317;51.660;5.824;2022-09-09T03:03:50;6.88;;;2.58;;
48526;SDS011;34317;51.660;5.824;2022-09-09T03:06:17;5.82;;;2.65;;
48526;SDS011;34317;51.660;5.824;2022-09-09T03:08:50;6.40;;;2.70;;
48526;SDS011;34317;51.660;5.824;2022-09-09T03:11:22;5.78;;;2.80;;
48526;SDS011;34317;51.660;5.824;2022-09-09T03:13:49;7.00;;;2.38;;
48526;SDS011;34317;51.660;5.824;2022-09-09T03:16:16;6.25;;;2.80;;
48526;SDS011;34317;51.660;5.824;2022-09-09T03:18:47;7.95;;;2.83;;
48526;SDS011;34317;51.660;5.824;2022-09-09T03:21:15;4.70;;;2.60;;
48526;SDS011;34317;51.660;5.824;2022-09-09T03:23:43;5.60;;;2.58;;
48526;SDS011;34317;51.660;5.824;2022-09-09T03:26:11;4.93;;;2.90;;
48526;SDS011;34317;51.660;5.824;2022-09-09T03:28:44;6.93;;;2.40;;
48526;SDS011;34317;51.660;5.824;2022-09-09T03:31:15;4.78;;;2.55;;
48526;SDS011;34317;51.660;5.824;2022-09-09T03:33:42;6.35;;;2.70;;
48526;SDS011;34317;51.660;5.824;2022-09-09T03:36:12;6.50;;;2.53;;
48526;SDS011;34317;51.660;5.824;2022-09-09T03:38:39;6.38;;;2.45;;
48526;SDS011;34317;51.660;5.824;2022-09-09T03:41:07;5.88;;;2.95;;
48526;SDS011;34317;51.660;5.824;2022-09-09T03:43:35;4.25;;;2.55;;
48526;SDS011;34317;51.660;5.824;2022-09-09T03:46:03;6.47;;;2.95;;
48526;SDS011;34317;51.660;5.824;2022-09-09T03:48:31;6.75;;;2.83;;
48526;SDS011;34317;51.660;5.824;2022-09-09T03:50:59;6.75;;;2.80;;
48526;SDS011;34317;51.660;5.824;2022-09-09T03:53:29;6.32;;;2.50;;
48526;SDS011;34317;51.660;5.824;2022-09-09T03:55:57;7.65;;;2.70;;
48526;SDS011;34317;51.660;5.824;2022-09-09T03:58:27;8.23;;;2.60;;
48526;SDS011;34317;51.660;5.824;2022-09-09T04:01:04;4.30;;;2.75;;
48526;SDS011;34317;51.660;5.824;2022-09-09T04:03:36;7.55;;;2.75;;
48526;SDS011;34317;51.660;5.824;2022-09-09T04:06:03;8.27;;;2.90;;
48526;SDS011;34317;51.660;5.824;2022-09-09T04:08:33;5.93;;;2.90;;
48526;SDS011;34317;51.660;5.824;2022-09-09T04:11:02;5.75;;;2.38;;
48526;SDS011;34317;51.660;5.824;2022-09-09T04:13:33;4.60;;;2.60;;
48526;SDS011;34317;51.660;5.824;2022-09-09T04:16:02;6.55;;;2.60;;
48526;SDS011;34317;51.660;5.824;2022-09-09T04:18:32;5.95;;;2.72;;
48526;SDS011;34317;51.660;5.824;2022-09-09T04:21:01;7.25;;;2.90;;
48526;SDS011;34317;51.660;5.824;2022-09-09T04:23:32;7.90;;;2.78;;
48526;SDS011;34317;51.660;5.824;2022-09-09T04:26:01;6.22;;;2.80;;
48526;SDS011;34317;51.660;5.824;2022-09-09T04:28:32;7.35;;;2.78;;
48526;SDS011;34317;51.660;5.824;2022-09-09T04:31:05;6.82;;;2.88;;
48526;SDS011;34317;51.660;5.824;2022-09-09T04:33:39;14.82;;;2.83;;
48526;SDS011;34317;51.660;5.824;2022-09-09T04:36:08;6.22;;;2.78;;
48526;SDS011;34317;51.660;5.824;2022-09-09T04:38:35;9.73;;;2.85;;
48526;SDS011;34317;51.660;5.824;2022-09-09T04:41:04;5.43;;;2.47;;
48526;SDS011;34317;51.660;5.824;2022-09-09T04:43:33;8.35;;;2.78;;
48526;SDS011;34317;51.660;5.824;2022-09-09T04:46:03;8.57;;;2.70;;
48526;SDS011;34317;51.660;5.824;2022-09-09T04:48:32;3.90;;;2.35;;
48526;SDS011;34317;51.660;5.824;2022-09-09T04:51:02;7.32;;;2.97;;
48526;SDS011;34317;51.660;5.824;2022-09-09T04:53:32;4.53;;;2.38;;
48526;SDS011;34317;51.660;5.824;2022-09-09T04:58:35;7.78;;;2.67;;
48526;SDS011;34317;51.660;5.824;2022-09-09T05:03:42;5.97;;;2.78;;
48526;SDS011;34317;51.660;5.824;2022-09-09T05:06:14;6.07;;;2.60;;
48526;SDS011;34317;51.660;5.824;2022-09-09T05:08:45;7.05;;;2.47;;
48526;SDS011;34317;51.660;5.824;2022-09-09T05:11:20;6.32;;;2.53;;
48526;SDS011;34317;51.660;5.824;2022-09-09T05:13:53;7.18;;;2.88;;
48526;SDS011;34317;51.660;5.824;2022-09-09T05:16:21;8.02;;;2.80;;
48526;SDS011;34317;51.660;5.824;2022-09-09T05:18:49;4.50;;;2.40;;
48526;SDS011;34317;51.660;5.824;2022-09-09T05:21:21;4.72;;;2.60;;
48526;SDS011;34317;51.660;5.824;2022-09-09T05:23:49;5.63;;;2.33;;
48526;SDS011;34317;51.660;5.824;2022-09-09T05:26:20;7.82;;;2.38;;
48526;SDS011;34317;51.660;5.824;2022-09-09T05:28:50;7.38;;;2.25;;
48526;SDS011;34317;51.660;5.824;2022-09-09T05:31:18;6.25;;;2.40;;
48526;SDS011;34317;51.660;5.824;2022-09-09T05:33:50;7.70;;;2.28;;
48526;SDS011;34317;51.660;5.824;2022-09-09T05:36:17;8.68;;;2.30;;
48526;SDS011;34317;51.660;5.824;2022-09-09T05:38:50;7.18;;;2.50;;
48526;SDS011;34317;51.660;5.824;2022-09-09T05:41:18;7.15;;;2.25;;
48526;SDS011;34317;51.660;5.824;2022-09-09T05:43:47;6.53;;;2.60;;
48526;SDS011;34317;51.660;5.824;2022-09-09T05:46:17;7.75;;;2.50;;
48526;SDS011;34317;51.660;5.824;2022-09-09T05:48:47;5.22;;;2.22;;
48526;SDS011;34317;51.660;5.824;2022-09-09T05:51:21;10.25;;;2.60;;
48526;SDS011;34317;51.660;5.824;2022-09-09T05:53:51;5.18;;;2.13;;
48526;SDS011;34317;51.660;5.824;2022-09-09T05:56:20;6.82;;;2.70;;
48526;SDS011;34317;51.660;5.824;2022-09-09T05:58:49;7.38;;;2.30;;
48526;SDS011;34317;51.660;5.824;2022-09-09T06:01:19;11.80;;;2.30;;
48526;SDS011;34317;51.660;5.824;2022-09-09T06:03:48;7.28;;;2.40;;
48526;SDS011;34317;51.660;5.824;2022-09-09T06:06:17;6.22;;;2.47;;
48526;SDS011;34317;51.660;5.824;2022-09-09T06:08:50;6.38;;;2.17;;
48526;SDS011;34317;51.660;5.824;2022-09-09T06:11:20;7.05;;;2.60;;
48526;SDS011;34317;51.660;5.824;2022-09-09T06:13:53;9.73;;;2.58;;
48526;SDS011;34317;51.660;5.824;2022-09-09T06:16:22;8.52;;;2.33;;
48526;SDS011;34317;51.660;5.824;2022-09-09T06:18:51;6.35;;;2.35;;
48526;SDS011;34317;51.660;5.824;2022-09-09T06:21:19;7.80;;;2.35;;
48526;SDS011;34317;51.660;5.824;2022-09-09T06:23:48;8.38;;;2.55;;
48526;SDS011;34317;51.660;5.824;2022-09-09T06:26:18;7.65;;;2.78;;
48526;SDS011;34317;51.660;5.824;2022-09-09T06:28:54;6.93;;;2.42;;
48526;SDS011;34317;51.660;5.824;2022-09-09T06:31:22;10.02;;;2.85;;
48526;SDS011;34317;51.660;5.824;2022-09-09T06:33:58;5.70;;;2.10;;
48526;SDS011;34317;51.660;5.824;2022-09-09T06:36:27;7.47;;;2.40;;
48526;SDS011;34317;51.660;5.824;2022-09-09T06:38:56;8.82;;;2.33;;
48526;SDS011;34317;51.660;5.824;2022-09-09T06:41:24;8.57;;;2.60;;
48526;SDS011;34317;51.660;5.824;2022-09-09T06:43:56;9.05;;;2.50;;
48526;SDS011;34317;51.660;5.824;2022-09-09T06:46:32;8.32;;;2.33;;
48526;SDS011;34317;51.660;5.824;2022-09-09T06:49:00;10.05;;;2.90;;
48526;SDS011;34317;51.660;5.824;2022-09-09T06:51:31;6.50;;;2.40;;
48526;SDS011;34317;51.660;5.824;2022-09-09T06:54:03;9.23;;;2.53;;
48526;SDS011;34317;51.660;5.824;2022-09-09T06:56:35;8.40;;;2.50;;
48526;SDS011;34317;51.660;5.824;2022-09-09T06:59:09;7.65;;;2.38;;
48526;SDS011;34317;51.660;5.824;2022-09-09T07:01:41;7.03;;;2.63;;
48526;SDS011;34317;51.660;5.824;2022-09-09T07:04:12;7.68;;;2.40;;
48526;SDS011;34317;51.660;5.824;2022-09-09T07:06:43;6.95;;;2.53;;
48526;SDS011;34317;51.660;5.824;2022-09-09T07:09:17;7.55;;;2.50;;
48526;SDS011;34317;51.660;5.824;2022-09-09T07:11:48;10.30;;;2.70;;
48526;SDS011;34317;51.660;5.824;2022-09-09T07:14:19;6.55;;;2.60;;
48526;SDS011;34317;51.660;5.824;2022-09-09T07:16:50;8.05;;;2.67;;
48526;SDS011;34317;51.660;5.824;2022-09-09T07:19:20;7.28;;;2.50;;
48526;SDS011;34317;51.660;5.824;2022-09-09T07:21:51;9.00;;;2.55;;
48526;SDS011;34317;51.660;5.824;2022-09-09T07:24:20;6.45;;;2.08;;
48526;SDS011;34317;51.660;5.824;2022-09-09T07:26:48;7.28;;;2.35;;
48526;SDS011;34317;51.660;5.824;2022-09-09T07:29:17;7.63;;;2.60;;
48526;SDS011;34317;51.660;5.824;2022-09-09T07:31:47;10.73;;;2.80;;
48526;SDS011;34317;51.660;5.824;2022-09-09T07:34:20;8.57;;;2.40;;
48526;SDS011;34317;51.660;5.824;2022-09-09T07:36:51;7.78;;;2.75;;
48526;SDS011;34317;51.660;5.824;2022-09-09T07:39:19;9.88;;;2.47;;
48526;SDS011;34317;51.660;5.824;2022-09-09T07:41:50;8.63;;;2.40;;
48526;SDS011;34317;51.660;5.824;2022-09-09T07:44:22;7.00;;;2.40;;
48526;SDS011;34317;51.660;5.824;2022-09-09T07:46:59;5.20;;;2.03;;
48526;SDS011;34317;51.660;5.824;2022-09-09T07:49:33;5.82;;;2.17;;
48526;SDS011;34317;51.660;5.824;2022-09-09T07:52:03;7.72;;;2.30;;
48526;SDS011;34317;51.660;5.824;2022-09-09T07:54:31;7.50;;;2.10;;
48526;SDS011;34317;51.660;5.824;2022-09-09T07:57:01;4.85;;;2.10;;
48526;SDS011;34317;51.660;5.824;2022-09-09T07:59:32;8.30;;;2.13;;
48526;SDS011;34317;51.660;5.824;2022-09-09T08:02:00;8.48;;;2.33;;
48526;SDS011;34317;51.660;5.824;2022-09-09T08:04:31;8.07;;;1.80;;
48526;SDS011;34317;51.660;5.824;2022-09-09T08:06:59;9.10;;;2.10;;
48526;SDS011;34317;51.660;5.824;2022-09-09T08:09:29;8.32;;;2.03;;
48526;SDS011;34317;51.660;5.824;2022-09-09T08:12:14;7.43;;;2.00;;
48526;SDS011;34317;51.660;5.824;2022-09-09T08:14:41;4.32;;;1.73;;
48526;SDS011;34317;51.660;5.824;2022-09-09T08:17:09;7.93;;;2.20;;
48526;SDS011;34317;51.660;5.824;2022-09-09T08:19:37;5.47;;;1.70;;
48526;SDS011;34317;51.660;5.824;2022-09-09T08:22:09;6.82;;;1.77;;
48526;SDS011;34317;51.660;5.824;2022-09-09T08:24:39;7.40;;;1.98;;
48526;SDS011;34317;51.660;5.824;2022-09-09T08:27:07;8.70;;;2.17;;
48526;SDS011;34317;51.660;5.824;2022-09-09T08:29:34;9.18;;;1.90;;
48526;SDS011;34317;51.660;5.824;2022-09-09T08:32:02;3.55;;;1.63;;
48526;SDS011;34317;51.660;5.824;2022-09-09T08:34:30;6.63;;;1.90;;
48526;SDS011;34317;51.660;5.824;2022-09-09T08:37:02;8.60;;;1.92;;
48526;SDS011;34317;51.660;5.824;2022-09-09T08:39:34;7.28;;;2.08;;
48526;SDS011;34317;51.660;5.824;2022-09-09T08:42:06;9.75;;;1.83;;
48526;SDS011;34317;51.660;5.824;2022-09-09T08:50:38;8.75;;;1.52;;
48526;SDS011;34317;51.660;5.824;2022-09-09T08:55:54;6.82;;;1.90;;
48526;SDS011;34317;51.660;5.824;2022-09-09T08:58:32;5.38;;;1.77;;
48526;SDS011;34317;51.660;5.824;2022-09-09T09:04:29;7.20;;;1.80;;
48526;SDS011;34317;51.660;5.824;2022-09-09T09:12:57;7.65;;;1.70;;
48526;SDS011;34317;51.660;5.824;2022-09-09T09:15:26;6.22;;;1.70;;
48526;SDS011;34317;51.660;5.824;2022-09-09T09:17:58;8.43;;;1.70;;
48526;SDS011;34317;51.660;5.824;2022-09-09T09:21:02;7.90;;;1.73;;
48526;SDS011;34317;51.660;5.824;2022-09-09T09:23:25;6.07;;;1.40;;
48526;SDS011;34317;51.660;5.824;2022-09-09T09:26:34;7.72;;;1.50;;
48526;SDS011;34317;51.660;5.824;2022-09-09T09:29:15;5.15;;;1.60;;
48526;SDS011;34317;51.660;5.824;2022-09-09T09:31:53;7.82;;;1.67;;
48526;SDS011;34317;51.660;5.824;2022-09-09T09:34:34;5.72;;;1.63;;
48526;SDS011;34317;51.660;5.824;2022-09-09T09:37:15;4.68;;;1.38;;
48526;SDS011;34317;51.660;5.824;2022-09-09T09:39:50;6.28;;;1.60;;
48526;SDS011;34317;51.660;5.824;2022-09-09T09:42:33;7.15;;;1.55;;
48526;SDS011;34317;51.660;5.824;2022-09-09T09:45:35;8.30;;;1.60;;
48526;SDS011;34317;51.660;5.824;2022-09-09T09:48:04;7.68;;;1.73;;
48526;SDS011;34317;51.660;5.824;2022-09-09T09:50:39;5.22;;;1.67;;
48526;SDS011;34317;51.660;5.824;2022-09-09T09:53:20;6.68;;;1.73;;
48526;SDS011;34317;51.660;5.824;2022-09-09T09:55:59;5.78;;;1.60;;
48526;SDS011;34317;51.660;5.824;2022-09-09T09:58:29;6.95;;;1.52;;
48526;SDS011;34317;51.660;5.824;2022-09-09T10:01:01;7.05;;;1.48;;
48526;SDS011;34317;51.660;5.824;2022-09-09T10:03:30;6.32;;;1.38;;
48526;SDS011;34317;51.660;5.824;2022-09-09T10:06:01;6.97;;;1.35;;
48526;SDS011;34317;51.660;5.824;2022-09-09T10:08:45;7.85;;;1.52;;
48526;SDS011;34317;51.660;5.824;2022-09-09T10:20:12;6.18;;;1.58;;
48526;SDS011;34317;51.660;5.824;2022-09-09T10:22:50;9.55;;;1.67;;
48526;SDS011;34317;51.660;5.824;2022-09-09T10:28:01;6.55;;;1.63;;
48526;SDS011;34317;51.660;5.824;2022-09-09T10:33:58;4.60;;;1.45;;
48526;SDS011;34317;51.660;5.824;2022-09-09T10:36:42;6.35;;;1.80;;
48526;SDS011;34317;51.660;5.824;2022-09-09T10:39:18;6.78;;;1.80;;
48526;SDS011;34317;51.660;5.824;2022-09-09T10:42:05;9.43;;;1.80;;
48526;SDS011;34317;51.660;5.824;2022-09-09T10:44:42;7.43;;;1.50;;
48526;SDS011;34317;51.660;5.824;2022-09-09T10:50:40;6.03;;;1.40;;
48526;SDS011;34317;51.660;5.824;2022-09-09T10:55:59;6.15;;;1.50;;
48526;SDS011;34317;51.660;5.824;2022-09-09T10:58:35;5.55;;;1.60;;
48526;SDS011;34317;51.660;5.824;2022-09-09T11:01:28;5.05;;;1.50;;
48526;SDS011;34317;51.660;5.824;2022-09-09T11:04:10;7.90;;;1.60;;
48526;SDS011;34317;51.660;5.824;2022-09-09T11:06:44;4.32;;;1.45;;
48526;SDS011;34317;51.660;5.824;2022-09-09T11:09:16;5.80;;;1.30;;
48526;SDS011;34317;51.660;5.824;2022-09-09T11:11:52;6.20;;;1.60;;
48526;SDS011;34317;51.660;5.824;2022-09-09T11:14:42;7.70;;;1.63;;
48526;SDS011;34317;51.660;5.824;2022-09-09T11:17:22;5.22;;;1.42;;
48526;SDS011;34317;51.660;5.824;2022-09-09T11:30:38;4.30;;;1.60;;
48526;SDS011;34317;51.660;5.824;2022-09-09T11:33:37;7.80;;;2.35;;
48526;SDS011;34317;51.660;5.824;2022-09-09T11:41:50;6.57;;;2.05;;
48526;SDS011;34317;51.660;5.824;2022-09-09T11:44:19;7.97;;;2.13;;
48526;SDS011;34317;51.660;5.824;2022-09-09T11:46:54;6.15;;;2.05;;
48526;SDS011;34317;51.660;5.824;2022-09-09T11:52:24;7.15;;;1.92;;
48526;SDS011;34317;51.660;5.824;2022-09-09T11:55:10;2.88;;;1.83;;
48526;SDS011;34317;51.660;5.824;2022-09-09T11:57:38;4.45;;;1.80;;
48526;SDS011;34317;51.660;5.824;2022-09-09T12:00:06;5.97;;;1.48;;
48526;SDS011;34317;51.660;5.824;2022-09-09T12:02:47;8.00;;;1.87;;
48526;SDS011;34317;51.660;5.824;2022-09-09T12:05:16;4.60;;;1.40;;
48526;SDS011;34317;51.660;5.824;2022-09-09T12:07:55;3.70;;;1.63;;
48526;SDS011;34317;51.660;5.824;2022-09-09T12:10:32;4.38;;;1.42;;
48526;SDS011;34317;51.660;5.824;2022-09-09T12:13:17;2.70;;;1.10;;
48526;SDS011;34317;51.660;5.824;2022-09-09T12:15:49;3.30;;;1.17;;
48526;SDS011;34317;51.660;5.824;2022-09-09T12:18:26;3.05;;;1.20;;
48526;SDS011;34317;51.660;5.824;2022-09-09T12:24:10;3.20;;;1.48;;
48526;SDS011;34317;51.660;5.824;2022-09-09T12:26:41;5.70;;;1.42;;
48526;SDS011;34317;51.660;5.824;2022-09-09T12:29:13;3.80;;;1.40;;
48526;SDS011;34317;51.660;5.824;2022-09-09T12:32:00;4.05;;;1.40;;
48526;SDS011;34317;51.660;5.824;2022-09-09T12:34:31;5.88;;;1.88;;
48526;SDS011;34317;51.660;5.824;2022-09-09T12:39:58;7.15;;;1.88;;
48526;SDS011;34317;51.660;5.824;2022-09-09T12:42:29;6.30;;;1.98;;
48526;SDS011;34317;51.660;5.824;2022-09-09T12:44:59;5.32;;;2.03;;
48526;SDS011;34317;51.660;5.824;2022-09-09T12:47:36;10.05;;;2.50;;
48526;SDS011;34317;51.660;5.824;2022-09-09T12:52:59;7.07;;;2.00;;
48526;SDS011;34317;51.660;5.824;2022-09-09T12:55:31;6.90;;;2.00;;
48526;SDS011;34317;51.660;5.824;2022-09-09T12:58:02;5.18;;;1.80;;
48526;SDS011;34317;51.660;5.824;2022-09-09T13:00:33;5.35;;;1.77;;
48526;SDS011;34317;51.660;5.824;2022-09-09T13:03:02;4.97;;;1.90;;
48526;SDS011;34317;51.660;5.824;2022-09-09T13:05:42;7.35;;;1.60;;
48526;SDS011;34317;51.660;5.824;2022-09-09T13:08:10;4.68;;;1.63;;
48526;SDS011;34317;51.660;5.824;2022-09-09T13:13:36;5.60;;;1.60;;
48526;SDS011;34317;51.660;5.824;2022-09-09T13:16:06;4.15;;;1.95;;
48526;SDS011;34317;51.660;5.824;2022-09-09T13:18:45;4.70;;;1.70;;
48526;SDS011;34317;51.660;5.824;2022-09-09T13:21:13;7.28;;;2.13;;
48526;SDS011;34317;51.660;5.824;2022-09-09T13:23:40;3.88;;;1.70;;
48526;SDS011;34317;51.660;5.824;2022-09-09T13:26:26;6.30;;;1.60;;
48526;SDS011;34317;51.660;5.824;2022-09-09T13:28:54;4.45;;;1.60;;
48526;SDS011;34317;51.660;5.824;2022-09-09T13:31:23;4.82;;;1.85;;
48526;SDS011;34317;51.660;5.824;2022-09-09T13:34:09;6.20;;;1.80;;
48526;SDS011;34317;51.660;5.824;2022-09-09T13:36:38;5.45;;;1.85;;
48526;SDS011;34317;51.660;5.824;2022-09-09T13:39:13;4.32;;;1.70;;
48526;SDS011;34317;51.660;5.824;2022-09-09T13:41:45;6.10;;;1.67;;
48526;SDS011;34317;51.660;5.824;2022-09-09T13:44:22;4.90;;;1.95;;
48526;SDS011;34317;51.660;5.824;2022-09-09T13:49:36;5.30;;;2.13;;
48526;SDS011;34317;51.660;5.824;2022-09-09T13:52:13;4.03;;;1.80;;
48526;SDS011;34317;51.660;5.824;2022-09-09T13:54:42;5.60;;;1.75;;
48526;SDS011;34317;51.660;5.824;2022-09-09T13:57:14;3.92;;;1.70;;
48526;SDS011;34317;51.660;5.824;2022-09-09T13:59:50;7.07;;;2.25;;
48526;SDS011;34317;51.660;5.824;2022-09-09T14:02:33;6.25;;;2.40;;
48526;SDS011;34317;51.660;5.824;2022-09-09T14:05:00;8.82;;;2.78;;
48526;SDS011;34317;51.660;5.824;2022-09-09T14:07:27;4.57;;;2.13;;
48526;SDS011;34317;51.660;5.824;2022-09-09T14:09:55;6.13;;;1.90;;
48526;SDS011;34317;51.660;5.824;2022-09-09T14:12:22;4.78;;;2.30;;
48526;SDS011;34317;51.660;5.824;2022-09-09T14:14:50;8.27;;;2.42;;
48526;SDS011;34317;51.660;5.824;2022-09-09T14:17:17;6.60;;;2.30;;
48526;SDS011;34317;51.660;5.824;2022-09-09T14:19:44;6.68;;;2.55;;
48526;SDS011;34317;51.660;5.824;2022-09-09T14:22:12;4.90;;;1.90;;
48526;SDS011;34317;51.660;5.824;2022-09-09T14:24:39;6.38;;;2.13;;
48526;SDS011;34317;51.660;5.824;2022-09-09T14:27:07;2.13;;;1.27;;
48526;SDS011;34317;51.660;5.824;2022-09-09T14:29:35;5.03;;;1.25;;
48526;SDS011;34317;51.660;5.824;2022-09-09T14:32:02;6.70;;;1.60;;
48526;SDS011;34317;51.660;5.824;2022-09-09T14:34:29;3.40;;;1.25;;
48526;SDS011;34317;51.660;5.824;2022-09-09T14:36:59;5.13;;;1.20;;
48526;SDS011;34317;51.660;5.824;2022-09-09T14:39:26;4.28;;;1.48;;
48526;SDS011;34317;51.660;5.824;2022-09-09T14:41:53;4.47;;;1.38;;
48526;SDS011;34317;51.660;5.824;2022-09-09T14:44:20;3.60;;;1.35;;
48526;SDS011;34317;51.660;5.824;2022-09-09T14:46:47;3.88;;;1.30;;
48526;SDS011;34317;51.660;5.824;2022-09-09T14:49:16;2.55;;;1.23;;
48526;SDS011;34317;51.660;5.824;2022-09-09T14:51:43;5.32;;;1.48;;
48526;SDS011;34317;51.660;5.824;2022-09-09T14:54:10;3.75;;;1.30;;
48526;SDS011;34317;51.660;5.824;2022-09-09T14:56:38;4.60;;;1.40;;
48526;SDS011;34317;51.660;5.824;2022-09-09T14:59:05;5.53;;;1.70;;
48526;SDS011;34317;51.660;5.824;2022-09-09T15:01:32;4.70;;;1.35;;
48526;SDS011;34317;51.660;5.824;2022-09-09T15:04:02;5.07;;;1.30;;
48526;SDS011;34317;51.660;5.824;2022-09-09T15:06:32;3.33;;;1.30;;
48526;SDS011;34317;51.660;5.824;2022-09-09T15:09:00;5.50;;;1.48;;
48526;SDS011;34317;51.660;5.824;2022-09-09T15:11:33;4.70;;;1.25;;
48526;SDS011;34317;51.660;5.824;2022-09-09T15:14:05;5.07;;;1.35;;
48526;SDS011;34317;51.660;5.824;2022-09-09T15:16:33;3.15;;;1.30;;
48526;SDS011;34317;51.660;5.824;2022-09-09T15:19:05;4.95;;;1.35;;
48526;SDS011;34317;51.660;5.824;2022-09-09T15:21:33;3.63;;;2.13;;
48526;SDS011;34317;51.660;5.824;2022-09-09T15:24:04;3.05;;;1.27;;
48526;SDS011;34317;51.660;5.824;2022-09-09T15:26:31;4.93;;;1.20;;
48526;SDS011;34317;51.660;5.824;2022-09-09T15:28:59;5.80;;;1.50;;
48526;SDS011;34317;51.660;5.824;2022-09-09T15:31:27;4.45;;;1.20;;
48526;SDS011;34317;51.660;5.824;2022-09-09T15:34:00;5.03;;;1.40;;
48526;SDS011;34317;51.660;5.824;2022-09-09T15:36:30;8.18;;;1.50;;
48526;SDS011;34317;51.660;5.824;2022-09-09T15:39:00;3.45;;;1.35;;
48526;SDS011;34317;51.660;5.824;2022-09-09T15:41:29;3.75;;;1.30;;
48526;SDS011;34317;51.660;5.824;2022-09-09T15:43:58;2.17;;;1.02;;
48526;SDS011;34317;51.660;5.824;2022-09-09T15:46:26;4.18;;;1.30;;
48526;SDS011;34317;51.660;5.824;2022-09-09T15:49:06;3.95;;;1.30;;
48526;SDS011;34317;51.660;5.824;2022-09-09T15:51:33;3.55;;;1.33;;
48526;SDS011;34317;51.660;5.824;2022-09-09T15:54:11;5.45;;;1.30;;
48526;SDS011;34317;51.660;5.824;2022-09-09T15:56:44;3.50;;;1.50;;
48526;SDS011;34317;51.660;5.824;2022-09-09T15:59:12;3.53;;;1.30;;
48526;SDS011;34317;51.660;5.824;2022-09-09T16:01:39;2.90;;;0.90;;
48526;SDS011;34317;51.660;5.824;2022-09-09T16:04:07;2.08;;;0.90;;
48526;SDS011;34317;51.660;5.824;2022-09-09T16:06:34;0.98;;;0.60;;
48526;SDS011;34317;51.660;5.824;2022-09-09T16:09:02;2.15;;;0.70;;
48526;SDS011;34317;51.660;5.824;2022-09-09T16:11:33;3.38;;;0.90;;
48526;SDS011;34317;51.660;5.824;2022-09-09T16:14:02;2.45;;;0.93;;
48526;SDS011;34317;51.660;5.824;2022-09-09T16:16:30;3.22;;;0.85;;
48526;SDS011;34317;51.660;5.824;2022-09-09T16:18:59;2.20;;;0.80;;
48526;SDS011;34317;51.660;5.824;2022-09-09T16:21:29;1.67;;;0.88;;
48526;SDS011;34317;51.660;5.824;2022-09-09T16:23:59;4.68;;;0.80;;
48526;SDS011;34317;51.660;5.824;2022-09-09T16:26:28;3.33;;;0.90;;
48526;SDS011;34317;51.660;5.824;2022-09-09T16:28:57;1.80;;;0.82;;
48526;SDS011;34317;51.660;5.824;2022-09-09T16:31:26;2.13;;;0.98;;
48526;SDS011;34317;51.660;5.824;2022-09-09T16:33:54;2.03;;;0.90;;
48526;SDS011;34317;51.660;5.824;2022-09-09T16:36:22;2.42;;;0.80;;
48526;SDS011;34317;51.660;5.824;2022-09-09T16:38:54;2.42;;;1.02;;
48526;SDS011;34317;51.660;5.824;2022-09-09T16:41:24;2.20;;;0.90;;
48526;SDS011;34317;51.660;5.824;2022-09-09T16:43:56;1.88;;;0.75;;
48526;SDS011;34317;51.660;5.824;2022-09-09T16:46:25;2.03;;;1.05;;
48526;SDS011;34317;51.660;5.824;2022-09-09T16:48:58;1.92;;;0.93;;
48526;SDS011;34317;51.660;5.824;2022-09-09T16:51:30;1.27;;;0.88;;
48526;SDS011;34317;51.660;5.824;2022-09-09T16:53:59;1.73;;;0.80;;
48526;SDS011;34317;51.660;5.824;2022-09-09T16:56:29;2.63;;;1.02;;
48526;SDS011;34317;51.660;5.824;2022-09-09T16:59:01;1.63;;;0.90;;
48526;SDS011;34317;51.660;5.824;2022-09-09T17:01:30;2.30;;;1.10;;
48526;SDS011;34317;51.660;5.824;2022-09-09T17:04:01;4.03;;;1.10;;
48526;SDS011;34317;51.660;5.824;2022-09-09T17:06:29;1.88;;;1.10;;
48526;SDS011;34317;51.660;5.824;2022-09-09T17:09:02;2.72;;;1.25;;
48526;SDS011;34317;51.660;5.824;2022-09-09T17:11:30;1.90;;;1.20;;
48526;SDS011;34317;51.660;5.824;2022-09-09T17:13:58;4.20;;;1.20;;
48526;SDS011;34317;51.660;5.824;2022-09-09T17:16:26;2.58;;;1.23;;
48526;SDS011;34317;51.660;5.824;2022-09-09T17:18:56;2.70;;;1.20;;